オスロ の空港の天気 - METARとTAF

オスロ空港 ( ENGM / OSL ) - ノルウェー アーケシュフース県オスロ
飛行場実況気象(Metar)
観測時間03/26 08:50 CEST (03/26 06:50 UTC)
風向・風速不定 1m/s
視程10km以上
天気現象
なし
気温5℃
湿度70%
気圧1020hPa
METARENGM 260650Z VRB01KT CAVOK 05/M00 Q1020 NOSIG
過去の天気等 Google飛行場航空写真 Wunderground天気予報

過去48時間のMETAR

飛行場予報(TAF)
発表時間: -
26日14時 CEST ~ 26日21時 CEST に一時的に
風向・風速北北西 5m/s 瞬間風速 10m/s
27日4時 CEST から 確率 30% で
視程500m
天気現象
全天を覆う雲 鉛直視程 30m
TAF ENGM 2606/2706 24005KT CAVOK
TEMPO 2612/2619 33010G20KT
PROB30 2702/2706 0500 FG VV001